createdAt,value
2022-10-09T00:01:31.258Z,73.72
2022-10-09T00:04:18.565Z,73.73
2022-10-09T00:07:05.578Z,73.61
2022-10-09T00:09:52.574Z,73.69
2022-10-09T00:12:39.449Z,73.74
2022-10-09T00:15:26.709Z,73.77
2022-10-09T00:18:16.056Z,73.70
2022-10-09T00:21:04.376Z,73.69
2022-10-09T00:23:53.481Z,73.79
2022-10-09T00:26:40.621Z,73.83
2022-10-09T00:29:27.218Z,73.85
2022-10-09T00:32:14.288Z,73.90
2022-10-09T00:35:01.132Z,74.03
2022-10-09T00:37:48.856Z,73.81
2022-10-09T00:40:37.514Z,73.95
2022-10-09T00:43:43.871Z,74.09
2022-10-09T00:46:45.630Z,73.94
2022-10-09T00:49:34.618Z,73.96
2022-10-09T00:52:23.957Z,73.89
2022-10-09T00:55:14.385Z,73.89
2022-10-09T00:58:02.432Z,73.98
2022-10-09T01:01:57.354Z,74.03
2022-10-09T01:04:33.075Z,74.04
2022-10-09T01:07:43.170Z,73.85
2022-10-09T01:10:36.380Z,74.11
2022-10-09T01:14:00.686Z,73.98
2022-10-09T01:17:00.867Z,74.07
2022-10-09T01:20:11.196Z,74.10
2022-10-09T01:23:22.964Z,74.15
2022-10-09T01:26:32.504Z,74.25
2022-10-09T01:29:21.464Z,74.38
2022-10-09T01:32:11.384Z,74.55
2022-10-09T01:34:59.827Z,74.67
2022-10-09T01:37:47.845Z,74.54
2022-10-09T01:40:36.372Z,74.69
2022-10-09T01:43:23.190Z,74.78
2022-10-09T01:46:25.604Z,74.91
2022-10-09T01:49:38.523Z,74.87
2022-10-09T01:52:48.830Z,74.86
2022-10-09T01:55:51.696Z,74.76
2022-10-09T01:58:51.415Z,74.93
2022-10-09T02:01:39.662Z,74.90
2022-10-09T02:04:29.435Z,75.05
2022-10-09T02:07:17.704Z,75.09
2022-10-09T02:10:06.132Z,75.17
2022-10-09T02:12:59.082Z,75.15
2022-10-09T02:15:56.700Z,75.13
2022-10-09T02:18:46.380Z,75.23
2022-10-09T02:21:44.045Z,75.36
2022-10-09T02:24:34.086Z,75.28
2022-10-09T02:27:22.128Z,75.30
2022-10-09T02:30:10.936Z,75.29
2022-10-09T02:32:57.853Z,75.57
2022-10-09T02:35:44.843Z,75.53
2022-10-09T02:38:31.512Z,75.61
2022-10-09T02:41:18.599Z,75.56
2022-10-09T02:44:06.215Z,75.62
2022-10-09T02:46:53.388Z,75.81
2022-10-09T02:49:40.357Z,75.75
2022-10-09T02:52:27.218Z,75.75
2022-10-09T02:55:14.103Z,75.59
2022-10-09T02:58:00.982Z,75.41
2022-10-09T03:00:51.381Z,75.46
2022-10-09T03:03:38.231Z,75.41
2022-10-09T03:06:28.072Z,75.64
2022-10-09T03:09:14.784Z,76.03
2022-10-09T03:12:01.408Z,76.28
2022-10-09T03:14:48.035Z,76.06
2022-10-09T03:17:34.791Z,75.94
2022-10-09T03:20:21.711Z,75.86
2022-10-09T03:23:08.453Z,75.97
2022-10-09T03:26:00.153Z,75.89
2022-10-09T03:28:48.938Z,75.92
2022-10-09T03:31:53.068Z,76.20
2022-10-09T03:34:40.005Z,76.33
2022-10-09T03:37:26.410Z,76.42
2022-10-09T03:40:13.104Z,76.30
2022-10-09T03:43:00.206Z,76.38
2022-10-09T03:45:47.068Z,76.55
2022-10-09T03:48:35.209Z,76.39
2022-10-09T03:51:22.160Z,76.35
2022-10-09T03:54:09.047Z,76.25
2022-10-09T03:56:56.093Z,76.40
2022-10-09T03:59:42.947Z,76.42
2022-10-09T04:02:32.372Z,76.68
2022-10-09T04:05:19.441Z,76.88
2022-10-09T04:08:06.104Z,76.96
2022-10-09T04:11:00.067Z,77.18
2022-10-09T04:13:47.072Z,77.26
2022-10-09T04:16:34.072Z,77.01
2022-10-09T04:19:21.372Z,77.26
2022-10-09T04:22:08.131Z,77.26
2022-10-09T04:24:55.189Z,77.27
2022-10-09T04:27:42.068Z,77.47
2022-10-09T04:30:28.777Z,77.40
2022-10-09T04:33:16.161Z,77.25
2022-10-09T04:36:03.814Z,77.04
2022-10-09T04:38:50.284Z,77.23
2022-10-09T04:41:38.419Z,77.29
2022-10-09T04:44:25.457Z,77.31
2022-10-09T04:47:12.284Z,77.50
2022-10-09T04:49:59.035Z,77.51
2022-10-09T04:52:46.710Z,77.81
2022-10-09T04:55:38.936Z,77.93
2022-10-09T04:58:25.933Z,78.09
2022-10-09T05:01:19.543Z,78.09
2022-10-09T05:04:06.487Z,78.18
2022-10-09T05:06:53.178Z,78.35
2022-10-09T05:09:40.046Z,78.70
2022-10-09T05:12:27.252Z,78.56
2022-10-09T05:15:14.445Z,78.98
2022-10-09T05:18:02.144Z,78.69
2022-10-09T05:20:48.763Z,78.89
2022-10-09T05:23:35.813Z,78.73
2022-10-09T05:26:25.282Z,78.85
2022-10-09T05:29:11.971Z,78.94
2022-10-09T05:31:58.918Z,78.72
2022-10-09T05:34:45.578Z,78.81
2022-10-09T05:37:32.429Z,78.86
2022-10-09T05:40:19.151Z,78.93
2022-10-09T05:43:05.961Z,78.94
2022-10-09T05:45:53.293Z,78.80
2022-10-09T05:48:42.414Z,78.87
2022-10-09T05:51:32.247Z,78.93
2022-10-09T05:54:19.176Z,78.85
2022-10-09T05:57:06.050Z,78.62
2022-10-09T05:59:53.051Z,78.57
2022-10-09T06:02:39.899Z,78.65
2022-10-09T06:05:26.760Z,78.94
2022-10-09T06:08:13.643Z,79.17
2022-10-09T06:11:09.694Z,79.16
2022-10-09T06:13:56.427Z,79.24
2022-10-09T06:16:44.652Z,79.20
2022-10-09T06:19:31.526Z,79.34
2022-10-09T06:22:18.741Z,79.03
2022-10-09T06:25:05.631Z,79.07
2022-10-09T06:27:52.691Z,78.50
2022-10-09T06:30:39.429Z,78.35
2022-10-09T06:33:29.747Z,78.30
2022-10-09T06:36:27.740Z,78.54
2022-10-09T06:39:15.097Z,78.33
2022-10-09T06:42:01.988Z,78.16
2022-10-09T06:44:50.804Z,77.74
2022-10-09T06:47:37.806Z,77.75
2022-10-09T06:50:24.975Z,77.61
2022-10-09T06:53:11.854Z,77.75
2022-10-09T06:55:59.277Z,77.69
2022-10-09T06:58:46.461Z,77.47
2022-10-09T07:01:34.383Z,77.26
2022-10-09T07:04:21.795Z,77.14
2022-10-09T07:07:08.727Z,77.07
2022-10-09T07:09:55.108Z,77.01
2022-10-09T07:12:42.244Z,76.10
2022-10-09T07:15:28.961Z,75.52
2022-10-09T07:18:16.815Z,75.53
2022-10-09T07:21:09.284Z,60.65
2022-10-09T07:23:56.250Z,76.53
2022-10-09T07:26:48.308Z,76.14
2022-10-09T07:29:35.553Z,75.28
2022-10-09T07:32:22.555Z,75.05
2022-10-09T07:35:10.213Z,74.72
2022-10-09T07:37:56.837Z,74.44
2022-10-09T07:40:43.880Z,74.84
2022-10-09T07:43:30.947Z,74.77
2022-10-09T07:46:20.782Z,73.89
2022-10-09T07:49:07.684Z,73.61
2022-10-09T07:51:55.105Z,74.34
2022-10-09T07:54:41.505Z,75.32
2022-10-09T07:57:29.377Z,75.44
2022-10-09T08:00:16.153Z,71.75
2022-10-09T08:03:02.968Z,70.53
2022-10-09T08:05:56.411Z,70.60
2022-10-09T08:08:44.856Z,71.63
2022-10-09T08:11:32.466Z,71.75
2022-10-09T08:14:19.852Z,70.00
2022-10-09T08:17:06.516Z,67.09
2022-10-09T08:19:53.522Z,64.06
2022-10-09T08:22:40.393Z,63.39
2022-10-09T08:25:27.449Z,64.02
2022-10-09T08:28:14.266Z,64.42
2022-10-09T08:31:10.510Z,64.07
2022-10-09T08:33:59.369Z,62.56
2022-10-09T08:36:46.471Z,62.73
2022-10-09T08:39:33.371Z,62.17
2022-10-09T08:42:53.341Z,62.24
2022-10-09T08:45:42.731Z,62.38
2022-10-09T08:48:29.967Z,61.70
2022-10-09T08:51:32.983Z,59.70
2022-10-09T08:54:29.809Z,60.10
2022-10-09T08:57:17.694Z,56.79
2022-10-09T09:00:13.885Z,58.86
2022-10-09T09:03:31.433Z,57.96
2022-10-09T09:06:38.163Z,57.65
2022-10-09T09:09:52.517Z,57.60
2022-10-09T09:12:55.631Z,58.70
2022-10-09T09:15:48.004Z,57.16
2022-10-09T09:18:50.308Z,56.05
2022-10-09T09:21:53.040Z,55.90
2022-10-09T09:24:46.980Z,55.91
2022-10-09T09:27:36.958Z,54.32
2022-10-09T09:30:26.262Z,54.73
2022-10-09T09:33:25.512Z,54.72
2022-10-09T09:36:24.822Z,54.62
2022-10-09T09:42:22.186Z,55.26
2022-10-09T09:45:18.111Z,54.31
2022-10-09T09:48:15.190Z,53.99
2022-10-09T09:51:27.025Z,49.28
2022-10-09T09:54:19.179Z,52.20
2022-10-09T09:57:14.803Z,51.52
2022-10-09T10:00:10.154Z,50.13
2022-10-09T10:03:11.335Z,50.20
2022-10-09T10:05:58.760Z,50.64
2022-10-09T10:08:46.021Z,50.23
2022-10-09T10:11:35.923Z,48.27
2022-10-09T10:14:23.278Z,50.01
2022-10-09T10:17:26.998Z,49.62
2022-10-09T10:20:17.042Z,48.91
2022-10-09T10:23:04.026Z,48.92
2022-10-09T10:25:54.339Z,49.02
2022-10-09T10:28:52.278Z,49.22
2022-10-09T10:32:04.868Z,49.41
2022-10-09T10:35:03.776Z,49.01
2022-10-09T10:38:07.432Z,49.73
2022-10-09T10:41:10.034Z,48.46
2022-10-09T10:44:20.305Z,48.05
2022-10-09T10:47:14.997Z,46.85
2022-10-09T10:50:01.809Z,47.26
2022-10-09T10:53:28.794Z,44.89
2022-10-09T10:56:44.979Z,46.60
2022-10-09T11:00:06.009Z,46.73
2022-10-09T11:03:23.930Z,46.77
2022-10-09T11:06:25.211Z,46.97
2022-10-09T11:09:50.840Z,47.05
2022-10-09T11:13:03.674Z,46.34
2022-10-09T11:16:15.205Z,45.05
2022-10-09T11:19:15.337Z,45.57
2022-10-09T11:22:17.093Z,45.31
2022-10-09T11:25:50.793Z,44.45
2022-10-09T11:28:45.918Z,44.75
2022-10-09T11:31:40.026Z,45.10
2022-10-09T11:34:32.600Z,45.07
2022-10-09T11:37:24.763Z,43.94
2022-10-09T11:40:22.868Z,45.11
2022-10-09T11:43:18.411Z,43.50
2022-10-09T11:46:18.766Z,45.04
2022-10-09T11:49:13.853Z,44.40
2022-10-09T11:52:17.489Z,44.64
2022-10-09T11:55:29.252Z,43.78
2022-10-09T11:58:18.625Z,43.78
2022-10-09T12:01:19.400Z,44.37
2022-10-09T12:04:37.407Z,44.56
2022-10-09T12:07:35.097Z,44.64
2022-10-09T12:10:34.742Z,44.79
2022-10-09T12:13:42.583Z,44.64
2022-10-09T12:16:31.778Z,44.85
2022-10-09T12:19:24.295Z,42.85
2022-10-09T12:22:22.622Z,42.57
2022-10-09T12:25:41.419Z,43.36
2022-10-09T12:29:02.041Z,43.37
2022-10-09T12:31:51.442Z,42.96
2022-10-09T12:34:46.393Z,42.85
2022-10-09T12:37:37.021Z,41.57
2022-10-09T12:40:26.993Z,41.82
2022-10-09T12:43:18.483Z,41.72
2022-10-09T12:46:05.510Z,41.77
2022-10-09T12:48:53.200Z,42.49
2022-10-09T12:51:40.147Z,42.06
2022-10-09T12:54:30.052Z,41.78
2022-10-09T12:57:17.712Z,42.36
2022-10-09T13:18:58.942Z,40.68
2022-10-09T13:21:45.678Z,39.31
2022-10-09T13:24:33.040Z,40.48
2022-10-09T13:27:22.716Z,39.95
2022-10-09T13:30:11.531Z,40.76
2022-10-09T13:32:59.023Z,39.50
2022-10-09T13:35:45.926Z,38.98
2022-10-09T13:38:34.959Z,40.12
2022-10-09T13:41:25.009Z,40.08
2022-10-09T13:44:12.013Z,39.61
2022-10-09T13:46:59.435Z,39.08
2022-10-09T13:49:46.148Z,37.66
2022-10-09T13:52:33.195Z,38.41
2022-10-09T13:55:19.839Z,37.85
2022-10-09T13:58:06.707Z,39.02
2022-10-09T14:00:53.427Z,39.21
2022-10-09T14:03:40.909Z,38.93
2022-10-09T14:06:28.225Z,38.73
2022-10-09T14:09:15.028Z,39.29
2022-10-09T14:12:02.294Z,39.05
2022-10-09T14:14:48.864Z,39.50
2022-10-09T14:17:35.521Z,39.75
2022-10-09T14:20:25.276Z,40.14
2022-10-09T14:23:14.308Z,39.88
2022-10-09T14:26:05.669Z,39.91
2022-10-09T14:28:53.328Z,40.22
2022-10-09T14:31:40.871Z,40.58
2022-10-09T14:34:27.913Z,40.54
2022-10-09T14:37:29.805Z,40.91
2022-10-09T14:40:23.266Z,40.47
2022-10-09T14:43:11.427Z,40.72
2022-10-09T14:46:05.381Z,40.81
2022-10-09T14:48:56.492Z,41.17
2022-10-09T14:51:43.731Z,41.33
2022-10-09T14:54:32.628Z,41.24
2022-10-09T14:57:20.211Z,42.00
2022-10-09T15:00:08.414Z,42.84
2022-10-09T15:02:57.606Z,42.74
2022-10-09T15:05:46.882Z,43.29
2022-10-09T15:08:35.843Z,43.20
2022-10-09T15:11:23.178Z,43.76
2022-10-09T15:14:10.714Z,43.27
2022-10-09T15:16:58.124Z,44.25
2022-10-09T15:19:45.074Z,44.70
2022-10-09T15:22:32.835Z,45.04
2022-10-09T15:25:19.443Z,45.33
2022-10-09T15:28:06.888Z,45.91
2022-10-09T15:30:57.594Z,45.93
2022-10-09T15:33:44.597Z,46.24
2022-10-09T15:36:35.802Z,46.48
2022-10-09T15:39:24.160Z,47.19
2022-10-09T15:42:11.403Z,47.75
2022-10-09T15:44:58.600Z,48.20
2022-10-09T15:47:52.470Z,48.32
2022-10-09T15:50:43.701Z,48.80
2022-10-09T15:53:30.954Z,49.00
2022-10-09T15:56:21.550Z,49.40
2022-10-09T15:59:16.955Z,49.55
2022-10-09T16:02:04.198Z,49.88
2022-10-09T16:04:51.036Z,50.31
2022-10-09T16:07:39.228Z,50.61
2022-10-09T16:10:25.997Z,50.78
2022-10-09T16:13:12.843Z,50.90
2022-10-09T16:16:00.225Z,51.15
2022-10-09T16:18:48.166Z,51.46
2022-10-09T16:21:34.899Z,51.89
2022-10-09T16:24:21.467Z,51.87
2022-10-09T16:27:08.135Z,52.18
2022-10-09T16:29:55.452Z,52.50
2022-10-09T16:32:42.587Z,52.68
2022-10-09T16:35:29.475Z,52.95
2022-10-09T16:38:19.288Z,53.14
2022-10-09T16:41:15.298Z,53.38
2022-10-09T16:44:02.908Z,53.40
2022-10-09T16:46:49.801Z,53.40
2022-10-09T16:49:37.323Z,53.62
2022-10-09T16:52:24.148Z,53.92
2022-10-09T16:55:11.405Z,54.02
2022-10-09T16:57:59.266Z,54.20
2022-10-09T17:00:46.837Z,54.67
2022-10-09T17:03:33.849Z,54.83
2022-10-09T17:06:23.525Z,55.11
2022-10-09T17:09:14.214Z,55.18
2022-10-09T17:12:02.924Z,55.71
2022-10-09T17:14:50.491Z,55.82
2022-10-09T17:17:38.550Z,55.99
2022-10-09T17:20:28.137Z,56.16
2022-10-09T17:23:15.533Z,56.13
2022-10-09T17:26:07.190Z,56.16
2022-10-09T17:28:56.913Z,56.42
2022-10-09T17:31:44.026Z,56.58
2022-10-09T17:34:31.270Z,56.91
2022-10-09T17:37:18.302Z,57.02
2022-10-09T17:40:05.736Z,57.05
2022-10-09T17:42:53.067Z,57.33
2022-10-09T17:45:42.659Z,57.27
2022-10-09T17:48:29.929Z,57.37
2022-10-09T17:51:35.438Z,57.37
2022-10-09T17:54:22.531Z,57.36
2022-10-09T17:57:12.521Z,57.58
2022-10-09T17:59:59.237Z,57.75
2022-10-09T18:02:46.848Z,58.04
2022-10-09T18:05:41.333Z,58.08
2022-10-09T18:08:31.285Z,57.92
2022-10-09T18:11:17.974Z,58.17
2022-10-09T18:14:04.571Z,58.45
2022-10-09T18:16:51.118Z,58.63
2022-10-09T18:19:37.790Z,58.74
2022-10-09T18:22:25.451Z,59.00
2022-10-09T18:25:12.151Z,59.03
2022-10-09T18:28:00.029Z,59.11
2022-10-09T18:30:47.259Z,59.27
2022-10-09T18:33:34.834Z,59.53
2022-10-09T18:36:24.278Z,59.27
2022-10-09T18:39:14.758Z,59.18
2022-10-09T18:42:04.023Z,59.26
2022-10-09T18:44:51.321Z,59.31
2022-10-09T18:47:38.395Z,59.70
2022-10-09T18:50:25.403Z,59.71
2022-10-09T18:53:12.747Z,59.97
2022-10-09T18:56:21.244Z,59.93
2022-10-09T18:59:12.388Z,60.25
2022-10-09T19:01:59.206Z,60.35
2022-10-09T19:04:48.181Z,60.38
2022-10-09T19:07:35.093Z,60.20
2022-10-09T19:10:22.236Z,60.30
2022-10-09T19:13:09.303Z,60.35
2022-10-09T19:16:04.631Z,60.43
2022-10-09T19:18:53.477Z,60.66
2022-10-09T19:21:44.031Z,60.76
2022-10-09T19:24:34.329Z,60.87
2022-10-09T19:27:25.773Z,61.05
2022-10-09T19:30:15.264Z,61.23
2022-10-09T19:33:02.022Z,61.32
2022-10-09T19:35:55.376Z,61.34
2022-10-09T19:38:46.101Z,61.43
2022-10-09T19:41:33.436Z,69.32
2022-10-09T19:44:20.082Z,61.92
2022-10-09T19:47:07.467Z,61.96
2022-10-09T19:49:55.667Z,62.09
2022-10-09T19:52:42.586Z,62.13
2022-10-09T19:55:32.682Z,62.18
2022-10-09T19:58:19.824Z,62.26
2022-10-09T20:01:07.065Z,62.29
2022-10-09T20:04:00.464Z,62.08
2022-10-09T20:06:48.044Z,62.28
2022-10-09T20:09:35.483Z,62.47
2022-10-09T20:12:23.227Z,62.55
2022-10-09T20:15:10.547Z,62.52
2022-10-09T20:17:57.755Z,62.41
2022-10-09T20:20:48.795Z,62.50
2022-10-09T20:23:35.849Z,62.74
2022-10-09T20:26:22.521Z,62.89
2022-10-09T20:29:10.135Z,62.64
2022-10-09T20:31:56.763Z,62.71
2022-10-09T20:34:43.848Z,62.85
2022-10-09T20:37:30.646Z,62.95
2022-10-09T20:40:17.812Z,62.97
2022-10-09T20:43:04.635Z,63.06
2022-10-09T20:45:51.363Z,63.12
2022-10-09T20:48:38.110Z,63.10
2022-10-09T20:51:26.196Z,63.24
2022-10-09T20:54:18.226Z,63.47
2022-10-09T20:57:05.539Z,63.46
2022-10-09T20:59:52.332Z,63.57
2022-10-09T21:02:39.303Z,63.54
2022-10-09T21:05:26.093Z,63.48
2022-10-09T21:08:12.801Z,63.54
2022-10-09T21:11:00.662Z,63.60
2022-10-09T21:13:48.839Z,63.71
2022-10-09T21:16:35.701Z,63.69
2022-10-09T21:19:22.477Z,63.69
2022-10-09T21:22:09.317Z,63.82
2022-10-09T21:24:55.973Z,63.88
2022-10-09T21:27:42.535Z,63.96
2022-10-09T21:30:29.481Z,63.89
2022-10-09T21:33:16.950Z,64.20
2022-10-09T21:36:10.449Z,64.16
2022-10-09T21:38:57.539Z,64.11
2022-10-09T21:41:44.563Z,64.25
2022-10-09T21:44:31.180Z,64.18
2022-10-09T21:47:21.321Z,64.23
2022-10-09T21:50:10.009Z,64.29
2022-10-09T21:52:57.770Z,64.37
2022-10-09T21:55:44.450Z,64.54
2022-10-09T21:58:31.213Z,64.79
2022-10-09T22:01:18.243Z,64.79
2022-10-09T22:04:05.068Z,64.99
2022-10-09T22:06:51.465Z,64.98
2022-10-09T22:09:38.360Z,64.91
2022-10-09T22:12:25.139Z,64.76
2022-10-09T22:15:12.068Z,65.01
2022-10-09T22:17:58.775Z,65.13
2022-10-09T22:20:49.139Z,64.92
2022-10-09T22:23:37.783Z,65.06
2022-10-09T22:26:24.292Z,65.01
2022-10-09T22:29:10.967Z,65.02
2022-10-09T22:31:57.595Z,64.88
2022-10-09T22:34:44.476Z,65.12
2022-10-09T22:37:31.555Z,65.34
2022-10-09T22:40:19.035Z,65.27
2022-10-09T22:43:06.226Z,65.66
2022-10-09T22:45:52.784Z,65.43
2022-10-09T22:48:39.917Z,65.55
2022-10-09T22:51:28.790Z,65.88
2022-10-09T22:54:15.617Z,65.64
2022-10-09T22:57:02.627Z,65.54
2022-10-09T22:59:49.289Z,65.65
2022-10-09T23:02:36.064Z,65.53
2022-10-09T23:05:24.204Z,65.79
2022-10-09T23:08:10.955Z,65.94
2022-10-09T23:10:57.429Z,66.06
2022-10-09T23:13:45.294Z,66.05
2022-10-09T23:16:33.023Z,66.13
2022-10-09T23:19:20.108Z,66.05
2022-10-09T23:22:06.463Z,66.04
2022-10-09T23:24:53.180Z,66.07
2022-10-09T23:27:39.864Z,66.24
2022-10-09T23:30:26.729Z,66.44
2022-10-09T23:33:13.729Z,66.32
2022-10-09T23:36:04.135Z,66.29
2022-10-09T23:38:52.316Z,66.33
2022-10-09T23:41:39.305Z,66.72
2022-10-09T23:44:26.283Z,66.60
2022-10-09T23:47:13.079Z,66.57
2022-10-09T23:49:59.806Z,66.75
2022-10-09T23:52:46.908Z,66.69
2022-10-09T23:55:33.705Z,66.78
2022-10-09T23:58:21.239Z,66.99
